createdAt,value
2023-08-12T00:00:37.332Z,25.11
2023-08-12T00:03:05.450Z,24.77
2023-08-12T00:05:33.432Z,24.90
2023-08-12T00:08:00.908Z,24.87
2023-08-12T00:10:28.448Z,24.81
2023-08-12T00:12:55.703Z,24.83
2023-08-12T00:15:23.293Z,24.43
2023-08-12T00:17:50.900Z,24.19
2023-08-12T00:20:18.524Z,24.47
2023-08-12T00:22:45.871Z,24.71
2023-08-12T00:25:13.508Z,24.78
2023-08-12T00:27:41.240Z,24.80
2023-08-12T00:30:10.060Z,24.51
2023-08-12T00:32:37.323Z,24.77
2023-08-12T00:35:05.203Z,24.45
2023-08-12T00:37:34.196Z,24.63
2023-08-12T00:40:02.840Z,24.71
2023-08-12T00:42:30.189Z,24.63
2023-08-12T00:44:58.581Z,24.75
2023-08-12T00:47:26.764Z,24.65
2023-08-12T00:49:54.543Z,24.77
2023-08-12T00:52:21.847Z,24.75
2023-08-12T00:54:49.790Z,24.75
2023-08-12T00:57:17.592Z,24.74
2023-08-12T00:59:51.450Z,24.76
2023-08-12T01:02:19.048Z,24.67
2023-08-12T01:04:47.019Z,24.64
2023-08-12T01:07:15.797Z,24.79
2023-08-12T01:09:43.303Z,24.60
2023-08-12T01:12:29.351Z,24.57
2023-08-12T01:15:22.892Z,24.67
2023-08-12T01:17:53.942Z,24.28
2023-08-12T01:20:27.358Z,24.33
2023-08-12T01:23:10.290Z,24.41
2023-08-12T01:25:38.431Z,24.21
2023-08-12T01:28:07.358Z,23.91
2023-08-12T01:31:01.201Z,23.83
2023-08-12T01:33:50.678Z,23.96
2023-08-12T01:36:22.693Z,23.88
2023-08-12T01:38:54.182Z,23.81
2023-08-12T01:41:25.563Z,24.05
2023-08-12T01:43:53.943Z,23.77
2023-08-12T01:46:23.239Z,24.02
2023-08-12T01:48:51.043Z,23.48
2023-08-12T01:51:19.004Z,23.15
2023-08-12T01:53:46.444Z,23.18
2023-08-12T01:58:41.435Z,23.00
2023-08-12T02:01:09.254Z,23.01
2023-08-12T02:03:36.708Z,23.08
2023-08-12T02:06:04.526Z,23.38
2023-08-12T02:08:32.162Z,23.66
2023-08-12T02:10:59.538Z,23.80
2023-08-12T02:13:26.737Z,23.98
2023-08-12T02:15:54.412Z,24.13
2023-08-12T02:18:23.903Z,23.93
2023-08-12T02:20:51.123Z,24.12
2023-08-12T02:23:18.483Z,24.25
2023-08-12T02:25:46.070Z,24.45
2023-08-12T02:28:13.487Z,24.43
2023-08-12T02:30:44.315Z,24.88
2023-08-12T02:33:11.592Z,24.70
2023-08-12T02:35:39.697Z,24.90
2023-08-12T02:38:07.219Z,24.96
2023-08-12T02:40:34.869Z,24.57
2023-08-12T02:43:02.472Z,24.74
2023-08-12T02:45:29.867Z,24.19
2023-08-12T02:47:57.369Z,24.63
2023-08-12T02:50:24.812Z,24.40
2023-08-12T02:52:52.124Z,24.31
2023-08-12T02:55:19.975Z,24.37
2023-08-12T02:57:47.370Z,24.57
2023-08-12T03:00:15.676Z,24.66
2023-08-12T03:02:46.389Z,24.69
2023-08-12T03:05:14.342Z,24.70
2023-08-12T03:07:41.844Z,24.61
2023-08-12T03:10:09.708Z,24.32
2023-08-12T03:12:36.871Z,24.46
2023-08-12T03:15:08.570Z,24.69
2023-08-12T03:17:36.198Z,24.61
2023-08-12T03:20:06.700Z,24.52
2023-08-12T03:22:34.039Z,24.90
2023-08-12T03:25:01.740Z,24.52
2023-08-12T03:27:29.959Z,24.58
2023-08-12T03:29:57.581Z,24.39
2023-08-12T03:32:26.678Z,24.73
2023-08-12T03:34:54.153Z,24.85
2023-08-12T03:37:21.932Z,24.87
2023-08-12T03:39:53.601Z,24.98
2023-08-12T03:42:21.781Z,24.93
2023-08-12T03:44:50.494Z,25.04
2023-08-12T03:47:23.025Z,25.18
2023-08-12T03:49:50.623Z,24.94
2023-08-12T03:52:17.891Z,25.09
2023-08-12T03:54:45.982Z,25.25
2023-08-12T03:57:13.693Z,25.12
2023-08-12T03:59:41.223Z,25.20
2023-08-12T04:02:08.760Z,25.19
2023-08-12T04:04:37.368Z,25.11
2023-08-12T04:07:05.062Z,25.33
2023-08-12T04:09:33.507Z,25.38
2023-08-12T04:12:00.752Z,25.38
2023-08-12T04:14:32.266Z,25.17
2023-08-12T04:16:59.882Z,25.46
2023-08-12T04:19:27.199Z,25.53
2023-08-12T04:21:54.390Z,25.61
2023-08-12T04:24:21.683Z,25.55
2023-08-12T04:26:49.269Z,25.79
2023-08-12T04:29:18.005Z,25.75
2023-08-12T04:31:45.341Z,25.71
2023-08-12T04:34:12.871Z,25.65
2023-08-12T04:36:43.222Z,25.68
2023-08-12T04:39:12.603Z,25.63
2023-08-12T04:41:40.144Z,25.68
2023-08-12T04:44:08.447Z,25.50
2023-08-12T04:46:37.079Z,25.57
2023-08-12T04:49:06.043Z,25.78
2023-08-12T04:51:34.989Z,25.83
2023-08-12T04:54:03.822Z,25.95
2023-08-12T04:56:32.966Z,26.00
2023-08-12T04:59:01.531Z,26.02
2023-08-12T05:01:29.193Z,26.08
2023-08-12T05:03:56.531Z,25.83
2023-08-12T05:06:24.214Z,25.14
2023-08-12T05:08:52.952Z,25.43
2023-08-12T05:11:20.317Z,25.58
2023-08-12T05:13:47.987Z,25.74
2023-08-12T05:16:15.857Z,25.89
2023-08-12T05:18:43.949Z,25.82
2023-08-12T05:21:12.591Z,26.01
2023-08-12T05:23:39.951Z,26.22
2023-08-12T05:26:07.449Z,26.39
2023-08-12T05:28:34.998Z,26.49
2023-08-12T05:31:02.198Z,26.76
2023-08-12T05:33:29.573Z,26.82
2023-08-12T05:35:56.926Z,27.21
2023-08-12T05:38:25.110Z,26.09
2023-08-12T05:40:52.389Z,25.69
2023-08-12T05:43:19.977Z,25.60
2023-08-12T05:45:47.348Z,26.32
2023-08-12T05:48:14.794Z,26.77
2023-08-12T05:50:42.232Z,27.13
2023-08-12T05:53:09.437Z,27.21
2023-08-12T05:55:37.070Z,27.34
2023-08-12T05:58:05.843Z,27.35
2023-08-12T06:00:33.548Z,27.38
2023-08-12T06:03:01.253Z,26.77
2023-08-12T06:05:28.841Z,26.61
2023-08-12T06:07:56.533Z,26.88
2023-08-12T06:10:23.946Z,26.69
2023-08-12T06:12:51.138Z,26.15
2023-08-12T06:15:18.381Z,26.48
2023-08-12T06:17:45.599Z,27.57
2023-08-12T06:20:14.058Z,28.24
2023-08-12T06:22:41.818Z,28.63
2023-08-12T06:25:09.677Z,26.60
2023-08-12T06:27:37.481Z,25.47
2023-08-12T06:30:07.139Z,25.93
2023-08-12T06:32:36.678Z,27.18
2023-08-12T06:35:04.782Z,28.15
2023-08-12T06:37:32.685Z,29.01
2023-08-12T06:40:00.448Z,29.60
2023-08-12T06:42:27.896Z,29.82
2023-08-12T06:45:00.116Z,29.88
2023-08-12T06:47:28.783Z,29.65
2023-08-12T06:49:56.768Z,30.19
2023-08-12T06:52:24.145Z,30.51
2023-08-12T06:54:52.135Z,29.75
2023-08-12T06:57:19.553Z,30.01
2023-08-12T06:59:53.159Z,32.36
2023-08-12T07:02:21.166Z,35.60
2023-08-12T07:04:49.052Z,35.95
2023-08-12T07:07:16.737Z,33.72
2023-08-12T07:09:43.961Z,32.60
2023-08-12T07:12:11.440Z,34.80
2023-08-12T07:14:39.075Z,37.75
2023-08-12T07:17:06.385Z,38.66
2023-08-12T07:19:33.618Z,41.49
2023-08-12T07:22:01.088Z,42.32
2023-08-12T07:24:28.479Z,45.03
2023-08-12T07:26:56.619Z,47.82
2023-08-12T07:29:24.050Z,49.26
2023-08-12T07:31:53.588Z,49.62
2023-08-12T07:34:20.809Z,47.78
2023-08-12T07:36:48.279Z,49.74
2023-08-12T07:39:16.027Z,51.12
2023-08-12T07:41:43.576Z,51.79
2023-08-12T07:44:11.080Z,50.69
2023-08-12T07:46:38.533Z,46.82
2023-08-12T07:49:06.134Z,48.21
2023-08-12T07:51:33.486Z,49.37
2023-08-12T07:54:00.735Z,51.41
2023-08-12T07:56:28.329Z,50.06
2023-08-12T07:58:55.850Z,48.78
2023-08-12T08:01:23.463Z,46.76
2023-08-12T08:03:50.997Z,46.71
2023-08-12T08:06:19.004Z,47.39
2023-08-12T08:08:46.478Z,46.70
2023-08-12T08:11:13.690Z,47.45
2023-08-12T08:13:41.007Z,49.99
2023-08-12T08:16:08.371Z,49.84
2023-08-12T08:18:35.747Z,50.53
2023-08-12T08:21:05.894Z,50.18
2023-08-12T08:23:33.802Z,49.87
2023-08-12T08:26:02.180Z,52.10
2023-08-12T08:28:29.513Z,50.65
2023-08-12T08:30:56.913Z,48.88
2023-08-12T08:33:24.129Z,45.89
2023-08-12T08:35:51.308Z,43.65
2023-08-12T08:38:21.828Z,42.66
2023-08-12T08:40:51.898Z,43.00
2023-08-12T08:43:23.968Z,46.19
2023-08-12T08:45:55.365Z,43.97
2023-08-12T08:48:23.347Z,44.25
2023-08-12T08:50:52.988Z,46.29
2023-08-12T08:53:21.470Z,49.79
2023-08-12T08:55:49.728Z,51.71
2023-08-12T08:58:22.288Z,52.27
2023-08-12T09:00:50.936Z,48.39
2023-08-12T09:03:18.767Z,47.61
2023-08-12T09:05:46.968Z,47.27
2023-08-12T09:08:15.787Z,46.13
2023-08-12T09:10:43.288Z,48.78
2023-08-12T09:13:10.565Z,49.41
2023-08-12T09:15:37.931Z,47.14
2023-08-12T09:18:07.611Z,48.21
2023-08-12T09:20:35.790Z,50.25
2023-08-12T09:23:03.936Z,49.51
2023-08-12T09:25:32.241Z,47.60
2023-08-12T09:28:00.914Z,47.21
2023-08-12T09:30:34.836Z,46.54
2023-08-12T09:33:08.268Z,49.80
2023-08-12T09:35:42.326Z,50.75
2023-08-12T09:38:14.840Z,50.89
2023-08-12T09:40:49.038Z,50.23
2023-08-12T09:43:17.758Z,52.11
2023-08-12T09:45:46.979Z,50.86
2023-08-12T09:48:15.776Z,49.08
2023-08-12T09:50:45.223Z,47.51
2023-08-12T09:53:13.206Z,48.29
2023-08-12T09:55:44.697Z,48.14
2023-08-12T09:58:15.087Z,49.98
2023-08-12T10:00:43.222Z,48.36
2023-08-12T10:03:15.452Z,46.30
2023-08-12T10:05:44.812Z,45.78
2023-08-12T10:08:15.175Z,44.83
2023-08-12T10:10:44.943Z,44.38
2023-08-12T10:13:14.004Z,44.34
2023-08-12T10:15:42.071Z,43.50
2023-08-12T10:18:12.257Z,43.89
2023-08-12T10:20:41.640Z,43.66
2023-08-12T10:23:17.869Z,42.50
2023-08-12T10:25:46.815Z,41.83
2023-08-12T10:28:14.560Z,41.88
2023-08-12T10:30:43.192Z,40.76
2023-08-12T10:33:11.988Z,40.11
2023-08-12T10:35:50.750Z,40.32
2023-08-12T10:38:23.574Z,40.75
2023-08-12T10:40:52.089Z,41.13
2023-08-12T10:43:19.842Z,41.33
2023-08-12T10:45:54.360Z,41.48
2023-08-12T10:48:29.022Z,41.97
2023-08-12T10:51:00.791Z,42.42
2023-08-12T10:53:34.364Z,42.03
2023-08-12T10:56:06.394Z,41.33
2023-08-12T10:58:45.253Z,41.80
2023-08-12T11:01:19.129Z,42.28
2023-08-12T11:03:49.745Z,44.52
2023-08-12T11:06:18.047Z,44.36
2023-08-12T11:08:54.217Z,44.85
2023-08-12T11:11:27.728Z,44.70
2023-08-12T11:13:58.671Z,46.37
2023-08-12T11:16:44.508Z,47.18
2023-08-12T11:19:14.901Z,48.07
2023-08-12T11:21:44.474Z,47.71
2023-08-12T11:24:12.667Z,48.17
2023-08-12T11:26:41.957Z,47.39
2023-08-12T11:29:13.605Z,46.74
2023-08-12T11:31:43.958Z,47.17
2023-08-12T11:34:12.774Z,47.90
2023-08-12T11:36:40.585Z,48.82
2023-08-12T11:39:09.145Z,48.17
2023-08-12T11:41:36.547Z,47.88
2023-08-12T11:44:05.791Z,47.40
2023-08-12T11:46:36.448Z,47.18
2023-08-12T11:49:04.291Z,46.83
2023-08-12T11:51:31.974Z,47.05
2023-08-12T11:53:59.552Z,47.19
2023-08-12T11:56:27.349Z,47.21
2023-08-12T11:58:55.349Z,46.08
2023-08-12T12:01:24.775Z,46.65
2023-08-12T12:03:57.332Z,46.45
2023-08-12T12:06:42.533Z,44.97
2023-08-12T12:09:11.237Z,44.41
2023-08-12T12:11:39.740Z,43.10
2023-08-12T12:14:11.050Z,41.38
2023-08-12T12:16:47.722Z,40.26
2023-08-12T12:19:25.033Z,40.26
2023-08-12T12:21:55.016Z,39.47
2023-08-12T12:24:22.724Z,38.53
2023-08-12T12:26:51.403Z,38.10
2023-08-12T12:29:18.865Z,37.22
2023-08-12T12:31:46.177Z,36.14
2023-08-12T12:34:15.262Z,35.61
2023-08-12T12:36:43.170Z,35.15
2023-08-12T12:39:11.013Z,34.21
2023-08-12T12:41:38.706Z,32.38
2023-08-12T12:44:06.675Z,30.23
2023-08-12T12:46:34.324Z,29.23
2023-08-12T12:49:01.917Z,28.44
2023-08-12T12:51:29.602Z,28.42
2023-08-12T12:53:57.058Z,27.95
2023-08-12T12:56:24.895Z,28.02
2023-08-12T12:58:52.357Z,27.82
2023-08-12T13:01:19.616Z,27.94
2023-08-12T13:03:47.134Z,27.59
2023-08-12T13:06:14.968Z,27.67
2023-08-12T13:08:42.463Z,27.28
2023-08-12T13:11:09.961Z,27.74
2023-08-12T13:13:37.251Z,27.84
2023-08-12T13:16:05.135Z,27.52
2023-08-12T13:18:32.527Z,27.32
2023-08-12T13:21:00.084Z,27.11
2023-08-12T13:23:28.071Z,27.40
2023-08-12T13:25:55.766Z,27.21
2023-08-12T13:28:23.077Z,27.74
2023-08-12T13:30:50.886Z,27.95
2023-08-12T13:33:18.421Z,27.88
2023-08-12T13:35:46.022Z,27.78
2023-08-12T13:38:14.094Z,27.76
2023-08-12T13:40:48.120Z,27.88
2023-08-12T13:43:15.826Z,28.06
2023-08-12T13:45:43.394Z,28.28
2023-08-12T13:48:11.003Z,28.42
2023-08-12T13:50:38.354Z,28.72
2023-08-12T13:53:05.622Z,28.95
2023-08-12T13:55:33.045Z,29.45
2023-08-12T13:58:00.368Z,30.20
2023-08-12T14:00:27.699Z,30.80
2023-08-12T14:02:55.060Z,31.65
2023-08-12T14:05:22.540Z,32.52
2023-08-12T14:07:50.116Z,31.39
2023-08-12T14:10:17.588Z,32.45
2023-08-12T14:12:46.018Z,32.37
2023-08-12T14:15:13.456Z,32.93
2023-08-12T14:17:40.813Z,33.27
2023-08-12T14:20:09.289Z,34.38
2023-08-12T14:22:37.076Z,35.14
2023-08-12T14:25:06.303Z,35.12
2023-08-12T14:27:34.222Z,34.91
2023-08-12T14:30:01.885Z,35.51
2023-08-12T14:32:29.359Z,35.02
2023-08-12T14:34:56.603Z,34.70
2023-08-12T14:37:23.968Z,34.82
2023-08-12T14:39:51.886Z,35.02
2023-08-12T14:42:19.237Z,34.92
2023-08-12T14:44:47.116Z,34.59
2023-08-12T14:47:15.182Z,34.40
2023-08-12T14:49:43.108Z,34.95
2023-08-12T14:52:21.806Z,34.10
2023-08-12T14:54:49.800Z,34.49
2023-08-12T14:57:17.212Z,34.63
2023-08-12T14:59:44.712Z,33.72
2023-08-12T15:02:11.893Z,33.93
2023-08-12T15:04:40.581Z,34.30
2023-08-12T15:07:07.919Z,34.35
2023-08-12T15:09:35.195Z,34.91
2023-08-12T15:12:02.526Z,35.02
2023-08-12T15:14:31.737Z,34.27
2023-08-12T15:17:01.064Z,33.16
2023-08-12T15:19:28.514Z,32.03
2023-08-12T15:21:56.226Z,31.55
2023-08-12T15:24:23.771Z,31.97
2023-08-12T15:26:51.486Z,33.01
2023-08-12T15:29:18.872Z,32.78
2023-08-12T15:31:46.737Z,32.63
2023-08-12T15:34:14.276Z,32.97
2023-08-12T15:36:43.247Z,33.13
2023-08-12T15:39:13.548Z,32.37
2023-08-12T15:41:45.311Z,31.97
2023-08-12T15:44:14.728Z,32.24
2023-08-12T15:46:43.170Z,32.46
2023-08-12T15:49:12.366Z,32.30
2023-08-12T15:51:41.705Z,32.28
2023-08-12T15:54:09.550Z,32.14
2023-08-12T15:56:38.476Z,31.92
2023-08-12T15:59:07.828Z,31.44
2023-08-12T16:01:36.391Z,31.56
2023-08-12T16:04:04.567Z,31.44
2023-08-12T16:06:32.506Z,31.63
2023-08-12T16:11:30.245Z,32.04
2023-08-12T16:13:57.456Z,31.38
2023-08-12T16:16:24.755Z,31.85
2023-08-12T16:18:51.996Z,30.86
2023-08-12T16:21:19.181Z,30.78
2023-08-12T16:23:46.436Z,30.95
2023-08-12T16:26:14.664Z,30.86
2023-08-12T16:28:42.052Z,30.66
2023-08-12T16:31:09.561Z,29.93
2023-08-12T16:33:36.877Z,29.73
2023-08-12T16:36:05.269Z,29.64
2023-08-12T16:38:33.628Z,29.20
2023-08-12T16:41:01.214Z,28.72
2023-08-12T16:43:28.992Z,28.54
2023-08-12T16:45:56.619Z,28.56
2023-08-12T16:48:24.258Z,28.53
2023-08-12T16:50:51.781Z,28.51
2023-08-12T16:53:19.023Z,28.43
2023-08-12T16:55:46.772Z,28.47
2023-08-12T16:58:14.328Z,28.29
2023-08-12T17:00:41.979Z,28.32
2023-08-12T17:03:09.504Z,28.43
2023-08-12T17:05:37.316Z,28.52
2023-08-12T17:08:05.295Z,28.43
2023-08-12T17:10:33.908Z,28.32
2023-08-12T17:13:01.240Z,28.50
2023-08-12T17:15:29.112Z,28.43
2023-08-12T17:17:56.409Z,28.57
2023-08-12T17:20:24.713Z,28.77
2023-08-12T17:22:52.208Z,29.14
2023-08-12T17:25:19.663Z,29.23
2023-08-12T17:27:47.237Z,29.30
2023-08-12T17:30:17.211Z,29.27
2023-08-12T17:32:44.780Z,29.05
2023-08-12T17:35:12.383Z,28.61
2023-08-12T17:37:40.973Z,28.72
2023-08-12T17:40:11.806Z,29.17
2023-08-12T17:42:39.439Z,29.41
2023-08-12T17:45:08.169Z,29.43
2023-08-12T17:48:05.791Z,29.53
2023-08-12T17:50:33.688Z,29.34
2023-08-12T17:53:01.079Z,29.62
2023-08-12T17:55:29.013Z,29.56
2023-08-12T17:57:57.443Z,29.72
2023-08-12T18:00:25.102Z,29.71
2023-08-12T18:02:52.364Z,29.76
2023-08-12T18:05:19.995Z,29.74
2023-08-12T18:07:47.571Z,29.95
2023-08-12T18:10:15.113Z,29.85
2023-08-12T18:12:42.300Z,29.96
2023-08-12T18:15:10.458Z,29.67
2023-08-12T18:17:38.592Z,29.41
2023-08-12T18:20:07.363Z,29.29
2023-08-12T18:22:34.667Z,29.33
2023-08-12T18:25:02.209Z,29.02
2023-08-12T18:27:30.561Z,28.96
2023-08-12T18:29:58.220Z,28.95
2023-08-12T18:32:27.744Z,28.84
2023-08-12T18:34:57.650Z,28.59
2023-08-12T18:37:25.206Z,28.64
2023-08-12T18:39:52.942Z,28.58
2023-08-12T18:42:20.513Z,28.56
2023-08-12T18:44:48.471Z,28.37
2023-08-12T18:47:17.611Z,28.26
2023-08-12T18:49:46.075Z,28.07
2023-08-12T18:52:14.763Z,28.05
2023-08-12T18:54:42.479Z,28.06
2023-08-12T18:57:09.803Z,27.86
2023-08-12T18:59:38.072Z,27.49
2023-08-12T19:02:05.585Z,27.02
2023-08-12T19:04:33.352Z,27.46
2023-08-12T19:07:01.031Z,27.71
2023-08-12T19:09:28.521Z,27.72
2023-08-12T19:11:55.924Z,27.50
2023-08-12T19:14:23.260Z,27.30
2023-08-12T19:16:51.146Z,27.16
2023-08-12T19:19:18.592Z,27.20
2023-08-12T19:21:45.911Z,26.94
2023-08-12T19:24:13.752Z,26.85
2023-08-12T19:26:41.331Z,27.37
2023-08-12T19:29:08.762Z,27.33
2023-08-12T19:31:36.663Z,27.24
2023-08-12T19:34:04.707Z,27.10
2023-08-12T19:36:32.403Z,27.10
2023-08-12T19:39:00.110Z,27.14
2023-08-12T19:41:30.098Z,27.19
2023-08-12T19:43:59.840Z,27.20
2023-08-12T19:46:27.736Z,27.39
2023-08-12T19:48:55.661Z,27.53
2023-08-12T19:51:23.143Z,27.56
2023-08-12T19:53:50.473Z,27.71
2023-08-12T19:56:18.449Z,27.59
2023-08-12T19:58:46.298Z,27.44
2023-08-12T20:01:13.950Z,27.27
2023-08-12T20:03:41.550Z,27.03
2023-08-12T20:06:12.470Z,27.13
2023-08-12T20:08:40.081Z,27.24
2023-08-12T20:11:07.364Z,27.08
2023-08-12T20:13:34.676Z,27.21
2023-08-12T20:16:01.922Z,27.23
2023-08-12T20:18:29.483Z,27.30
2023-08-12T20:20:56.797Z,26.98
2023-08-12T20:23:24.200Z,27.03
2023-08-12T20:25:51.822Z,26.94
2023-08-12T20:28:19.217Z,27.57
2023-08-12T20:30:47.659Z,27.47
2023-08-12T20:33:15.107Z,27.47
2023-08-12T20:35:42.376Z,27.60
2023-08-12T20:38:09.899Z,27.60
2023-08-12T20:40:37.704Z,27.57
2023-08-12T20:43:05.708Z,27.25
2023-08-12T20:45:33.145Z,26.49
2023-08-12T20:48:00.512Z,25.65
2023-08-12T20:50:27.897Z,26.31
2023-08-12T20:52:55.166Z,26.31
2023-08-12T20:55:22.970Z,26.43
2023-08-12T20:57:50.593Z,26.31
2023-08-12T21:00:18.333Z,26.13
2023-08-12T21:02:46.518Z,26.59
2023-08-12T21:05:15.142Z,26.67
2023-08-12T21:07:42.872Z,27.07
2023-08-12T21:10:12.145Z,27.09
2023-08-12T21:12:39.765Z,26.99
2023-08-12T21:15:07.872Z,26.77
2023-08-12T21:17:35.643Z,26.68
2023-08-12T21:20:03.521Z,26.59
2023-08-12T21:22:30.785Z,26.46
2023-08-12T21:24:57.959Z,26.21
2023-08-12T21:27:26.895Z,26.27
2023-08-12T21:29:54.600Z,26.27
2023-08-12T21:32:22.453Z,26.49
2023-08-12T21:34:50.094Z,26.55
2023-08-12T21:37:17.727Z,26.72
2023-08-12T21:39:45.877Z,26.71
2023-08-12T21:42:13.722Z,26.40
2023-08-12T21:44:41.829Z,26.54
2023-08-12T21:47:10.331Z,26.77
2023-08-12T21:49:37.518Z,26.50
2023-08-12T21:52:04.917Z,26.45
2023-08-12T21:54:32.571Z,26.60
2023-08-12T21:57:00.265Z,26.44
2023-08-12T21:59:27.815Z,26.16
2023-08-12T22:01:55.507Z,26.56
2023-08-12T22:04:22.903Z,26.65
2023-08-12T22:06:50.402Z,26.68
2023-08-12T22:09:17.647Z,26.61
2023-08-12T22:11:45.138Z,26.62
2023-08-12T22:14:12.655Z,26.71
2023-08-12T22:16:40.436Z,26.59
2023-08-12T22:19:08.153Z,26.60
2023-08-12T22:21:35.323Z,26.41
2023-08-12T22:24:02.630Z,26.48
2023-08-12T22:26:30.165Z,26.55
2023-08-12T22:28:58.070Z,26.58
2023-08-12T22:31:25.814Z,26.64
2023-08-12T22:33:53.144Z,26.45
2023-08-12T22:36:20.997Z,26.62
2023-08-12T22:38:48.796Z,26.52
2023-08-12T22:41:16.161Z,26.40
2023-08-12T22:43:43.910Z,26.36
2023-08-12T22:46:11.652Z,26.47
2023-08-12T22:48:38.936Z,26.58
2023-08-12T22:51:06.148Z,26.52
2023-08-12T22:53:33.410Z,26.51
2023-08-12T22:56:00.991Z,26.60
2023-08-12T22:58:28.238Z,26.40
2023-08-12T23:00:56.159Z,26.23
2023-08-12T23:03:23.893Z,25.86
2023-08-12T23:05:51.573Z,26.11
2023-08-12T23:08:18.942Z,26.34
2023-08-12T23:10:47.118Z,26.58
2023-08-12T23:13:14.516Z,26.38
2023-08-12T23:15:44.568Z,26.22
2023-08-12T23:18:12.561Z,26.40
2023-08-12T23:20:40.062Z,26.61
2023-08-12T23:23:07.694Z,26.44
2023-08-12T23:25:35.353Z,26.45
2023-08-12T23:28:02.604Z,26.21
2023-08-12T23:30:30.481Z,26.28
2023-08-12T23:32:57.791Z,26.40
2023-08-12T23:35:25.057Z,26.55
2023-08-12T23:37:52.609Z,26.62
2023-08-12T23:40:20.683Z,26.78
2023-08-12T23:42:48.076Z,26.73
2023-08-12T23:45:15.665Z,26.80
2023-08-12T23:47:43.084Z,26.82
2023-08-12T23:50:12.618Z,26.88
2023-08-12T23:52:40.075Z,26.82
2023-08-12T23:55:08.315Z,26.57
2023-08-12T23:57:36.669Z,26.69
